Time;durP1;ratioP1;P1;durP2;ratioP2;P2;SDS_P1;SDS_P2;PMS_P1;PMS_P2;Temp;Humidity;BMP_temperature;BMP_pressure;BME280_temperature;BME280_humidity;BME280_pressure;Samples;Min_cycle;Max_cycle;Signal;HPM_P1;HPM_P2
2022/11/16 00:01:07;;;;;;;0.93;0.10;;;;;;;;;;1780566;80;26240;-57
2022/11/16 00:03:34;;;;;;;0.00;0.00;;;;;;;;;;1782004;79;26330;-55
2022/11/16 00:06:03;;;;;;;0.00;0.00;;;;;;;;;;1779964;80;26350;-56
2022/11/16 00:08:31;;;;;;;0.03;0.03;;;;;;;;;;1772599;79;26339;-56
2022/11/16 00:11:06;;;;;;;0.10;0.10;;;;;;;;;;1781045;79;26816;-57
2022/11/16 00:13:34;;;;;;;0.10;0.10;;;;;;;;;;1782578;80;26338;-58
2022/11/16 00:16:01;;;;;;;0.10;0.10;;;;;;;;;;1782843;79;26803;-58
2022/11/16 00:18:29;;;;;;;0.10;0.10;;;;;;;;;;1782121;80;26263;-57
2022/11/16 00:20:56;;;;;;;0.10;0.10;;;;;;;;;;1782823;80;26348;-56
2022/11/16 00:23:23;;;;;;;0.00;0.00;;;;;;;;;;1776203;80;26315;-57
2022/11/16 00:25:52;;;;;;;0.10;0.10;;;;;;;;;;1781414;79;26410;-57
2022/11/16 00:28:19;;;;;;;0.20;0.08;;;;;;;;;;1785208;79;26276;-57
2022/11/16 00:30:46;;;;;;;0.10;0.10;;;;;;;;;;1782647;79;26345;-57
2022/11/16 00:33:15;;;;;;;0.00;0.00;;;;;;;;;;1777233;80;26268;-56
2022/11/16 00:35:42;;;;;;;0.10;0.10;;;;;;;;;;1782146;80;26424;-57
2022/11/16 00:38:10;;;;;;;0.05;0.05;;;;;;;;;;1789141;79;26261;-56
2022/11/16 00:40:37;;;;;;;0.10;0.10;;;;;;;;;;1776009;79;26760;-56
2022/11/16 00:43:04;;;;;;;0.88;0.10;;;;;;;;;;1782630;79;26720;-56
2022/11/16 00:45:31;;;;;;;0.10;0.10;;;;;;;;;;1766744;80;26787;-55
2022/11/16 00:47:59;;;;;;;0.00;0.00;;;;;;;;;;1782249;79;26264;-56
2022/11/16 00:50:26;;;;;;;0.60;0.08;;;;;;;;;;1781460;80;26280;-55
2022/11/16 00:52:53;;;;;;;1.47;0.10;;;;;;;;;;1782116;80;26337;-54
2022/11/16 00:55:21;;;;;;;0.00;0.00;;;;;;;;;;1781288;80;26338;-55
2022/11/16 00:57:48;;;;;;;0.10;0.10;;;;;;;;;;1779253;80;26278;-54
2022/11/16 01:00:16;;;;;;;0.00;0.00;;;;;;;;;;1780760;79;26368;-50
2022/11/16 01:02:43;;;;;;;0.00;0.00;;;;;;;;;;1776672;80;26609;-53
2022/11/16 01:05:11;;;;;;;0.00;0.00;;;;;;;;;;1766526;80;26341;-54
2022/11/16 01:07:39;;;;;;;0.10;0.10;;;;;;;;;;1776214;80;26753;-55
2022/11/16 01:10:08;;;;;;;0.00;0.00;;;;;;;;;;1781437;79;26338;-52
2022/11/16 01:12:36;;;;;;;0.10;0.10;;;;;;;;;;1781420;80;26276;-55
2022/11/16 01:15:10;;;;;;;0.23;0.10;;;;;;;;;;1766569;80;26280;-55
2022/11/16 01:17:38;;;;;;;0.10;0.10;;;;;;;;;;1781634;80;26255;-54
2022/11/16 01:20:08;;;;;;;0.10;0.10;;;;;;;;;;1781182;80;26232;-55
2022/11/16 01:22:35;;;;;;;0.10;0.10;;;;;;;;;;1776253;79;26258;-53
2022/11/16 01:25:03;;;;;;;0.10;0.10;;;;;;;;;;1769691;80;26264;-54
2022/11/16 01:27:30;;;;;;;0.00;0.00;;;;;;;;;;1781465;79;26490;-55
2022/11/16 01:29:57;;;;;;;0.10;0.10;;;;;;;;;;1781796;80;26255;-52
2022/11/16 01:32:25;;;;;;;0.00;0.00;;;;;;;;;;1779894;79;26312;-55
2022/11/16 01:34:52;;;;;;;0.00;0.00;;;;;;;;;;1766304;80;26299;-53
2022/11/16 01:37:19;;;;;;;0.10;0.10;;;;;;;;;;1767856;80;26281;-53
2022/11/16 01:39:48;;;;;;;0.10;0.10;;;;;;;;;;1778256;79;26767;-54
2022/11/16 01:42:19;;;;;;;1.20;0.10;;;;;;;;;;1766835;80;26800;-54
2022/11/16 01:44:48;;;;;;;0.10;0.10;;;;;;;;;;1765759;80;26289;-54
2022/11/16 01:47:17;;;;;;;0.15;0.15;;;;;;;;;;1769147;79;26374;-51
2022/11/16 01:49:45;;;;;;;0.10;0.10;;;;;;;;;;1767970;80;26328;-50
2022/11/16 01:52:14;;;;;;;0.10;0.10;;;;;;;;;;1778158;80;26252;-52
2022/11/16 01:54:43;;;;;;;0.10;0.03;;;;;;;;;;1778772;80;26279;-55
2022/11/16 01:57:12;;;;;;;0.00;0.00;;;;;;;;;;1778767;79;26334;-55
2022/11/16 01:59:40;;;;;;;0.20;0.20;;;;;;;;;;1778623;80;26260;-55
2022/11/16 02:02:07;;;;;;;0.13;0.13;;;;;;;;;;1778573;80;26332;-56
2022/11/16 02:04:34;;;;;;;0.10;0.10;;;;;;;;;;1778637;80;26312;-53
2022/11/16 02:07:03;;;;;;;0.00;0.00;;;;;;;;;;1776609;80;26772;-53
2022/11/16 02:09:53;;;;;;;0.55;0.10;;;;;;;;;;1776075;79;26311;-56
2022/11/16 02:12:28;;;;;;;0.20;0.20;;;;;;;;;;1771957;80;26285;-55
2022/11/16 02:15:11;;;;;;;0.10;0.10;;;;;;;;;;1764200;80;26322;-55
2022/11/16 02:17:58;;;;;;;0.10;0.10;;;;;;;;;;1776433;80;26322;-54
2022/11/16 02:20:45;;;;;;;0.00;0.00;;;;;;;;;;1769591;79;26280;-52
2022/11/16 02:23:17;;;;;;;0.08;0.08;;;;;;;;;;1767479;80;26205;-57
2022/11/16 02:25:55;;;;;;;0.10;0.10;;;;;;;;;;1775871;80;26368;-56
2022/11/16 02:28:27;;;;;;;0.10;0.10;;;;;;;;;;1779416;79;26272;-55
2022/11/16 02:30:56;;;;;;;0.10;0.10;;;;;;;;;;1778724;79;26264;-52
2022/11/16 02:33:24;;;;;;;0.10;0.10;;;;;;;;;;1779467;80;26345;-55
2022/11/16 02:35:53;;;;;;;0.28;0.10;;;;;;;;;;1782481;80;26256;-56
2022/11/16 02:38:22;;;;;;;0.10;0.10;;;;;;;;;;1782933;80;26242;-54
2022/11/16 02:40:54;;;;;;;0.57;0.10;;;;;;;;;;1769641;79;26265;-55
2022/11/16 02:43:25;;;;;;;0.10;0.10;;;;;;;;;;1780644;79;26253;-58
2022/11/16 02:45:53;;;;;;;1.00;0.20;;;;;;;;;;1778870;79;26728;-54
2022/11/16 02:48:22;;;;;;;0.08;0.08;;;;;;;;;;1782564;79;26733;-56
2022/11/16 02:50:51;;;;;;;0.30;0.10;;;;;;;;;;1782748;79;26216;-54
2022/11/16 02:53:22;;;;;;;0.10;0.10;;;;;;;;;;1782865;79;26334;-55
2022/11/16 02:55:49;;;;;;;0.10;0.10;;;;;;;;;;1778478;80;26392;-54
2022/11/16 02:58:18;;;;;;;0.10;0.10;;;;;;;;;;1781609;80;26392;-55
2022/11/16 03:00:56;;;;;;;0.10;0.10;;;;;;;;;;1782325;80;26712;-53
2022/11/16 03:03:25;;;;;;;0.08;0.08;;;;;;;;;;1791686;79;26331;-52
2022/11/16 03:05:54;;;;;;;0.10;0.10;;;;;;;;;;1783735;78;26263;-56
2022/11/16 03:08:32;;;;;;;0.10;0.10;;;;;;;;;;1783005;80;26317;-54
2022/11/16 03:13:47;;;;;;;0.10;0.10;;;;;;;;;;1782207;79;26730;-54
2022/11/16 03:16:25;;;;;;;0.33;0.10;;;;;;;;;;1774871;80;26281;-55
2022/11/16 03:18:54;;;;;;;0.00;0.00;;;;;;;;;;1779260;80;26256;-57
2022/11/16 03:21:23;;;;;;;0.13;0.13;;;;;;;;;;1774384;80;26414;-53
2022/11/16 03:23:51;;;;;;;0.00;0.00;;;;;;;;;;1782161;80;26272;-54
2022/11/16 03:26:19;;;;;;;0.10;0.10;;;;;;;;;;1777610;79;26301;-55
2022/11/16 03:28:48;;;;;;;0.10;0.10;;;;;;;;;;1772653;79;26275;-56
2022/11/16 03:31:17;;;;;;;0.10;0.10;;;;;;;;;;1775262;80;26295;-55
2022/11/16 03:33:46;;;;;;;0.10;0.10;;;;;;;;;;1781124;80;26780;-53
2022/11/16 03:36:27;;;;;;;0.10;0.10;;;;;;;;;;1782436;79;26312;-55
2022/11/16 03:38:55;;;;;;;0.00;0.00;;;;;;;;;;1775929;80;26326;-53
2022/11/16 03:41:24;;;;;;;0.10;0.10;;;;;;;;;;1783116;79;26272;-53
2022/11/16 03:43:51;;;;;;;0.00;0.00;;;;;;;;;;1773694;80;26273;-55
2022/11/16 03:46:19;;;;;;;0.00;0.00;;;;;;;;;;1782455;79;26744;-56
2022/11/16 03:48:47;;;;;;;0.00;0.00;;;;;;;;;;1771063;79;26337;-52
2022/11/16 03:51:17;;;;;;;0.08;0.00;;;;;;;;;;1773847;80;26330;-54
2022/11/16 03:53:44;;;;;;;0.13;0.13;;;;;;;;;;1777709;80;26291;-53
2022/11/16 03:56:12;;;;;;;0.13;0.13;;;;;;;;;;1774838;80;26264;-55
2022/11/16 03:58:39;;;;;;;0.05;0.05;;;;;;;;;;1778691;79;26256;-55
2022/11/16 04:01:06;;;;;;;0.00;0.00;;;;;;;;;;1776005;80;26280;-51
2022/11/16 04:03:33;;;;;;;0.03;0.03;;;;;;;;;;1781589;80;26346;-53
2022/11/16 04:25:23;;;;;;;0.00;0.00;;;;;;;;;;1782945;80;26570;-54
2022/11/16 04:38:53;;;;;;;0.10;0.10;;;;;;;;;;1775823;80;26312;-53
2022/11/16 04:44:05;;;;;;;0.00;0.00;;;;;;;;;;1777604;80;26361;-54
2022/11/16 04:49:18;;;;;;;0.10;0.10;;;;;;;;;;1775918;80;26331;-55
2022/11/16 04:51:46;;;;;;;0.10;0.10;;;;;;;;;;1777326;80;26823;-55
2022/11/16 04:54:13;;;;;;;0.10;0.10;;;;;;;;;;1776946;79;26237;-53
2022/11/16 04:56:41;;;;;;;0.00;0.00;;;;;;;;;;1765825;80;26303;-57
2022/11/16 04:59:08;;;;;;;0.00;0.00;;;;;;;;;;1778756;80;26260;-55
2022/11/16 05:04:21;;;;;;;0.00;0.00;;;;;;;;;;1771900;79;26347;-52
2022/11/16 05:06:48;;;;;;;0.10;0.10;;;;;;;;;;1777327;80;26272;-55
2022/11/16 05:09:15;;;;;;;0.15;0.15;;;;;;;;;;1777909;80;26729;-55
2022/11/16 05:11:42;;;;;;;0.05;0.05;;;;;;;;;;1777440;79;27461;-52
2022/11/16 05:14:10;;;;;;;0.00;0.00;;;;;;;;;;1775145;79;26741;-53
2022/11/16 05:16:37;;;;;;;0.10;0.10;;;;;;;;;;1777694;80;26334;-52
2022/11/16 05:21:50;;;;;;;0.08;0.08;;;;;;;;;;1777172;80;26276;-56
2022/11/16 05:24:32;;;;;;;0.13;0.10;;;;;;;;;;1776277;79;26260;-55
2022/11/16 05:27:00;;;;;;;0.30;0.15;;;;;;;;;;1780422;79;27523;-54
2022/11/16 05:29:28;;;;;;;0.10;0.10;;;;;;;;;;1780381;79;26245;-49
2022/11/16 05:31:56;;;;;;;0.42;0.20;;;;;;;;;;1774604;80;26292;-56
2022/11/16 05:34:23;;;;;;;1.00;0.20;;;;;;;;;;1776416;80;26303;-56
2022/11/16 05:36:51;;;;;;;0.50;0.20;;;;;;;;;;1774070;79;26261;-54
2022/11/16 05:39:18;;;;;;;0.10;0.10;;;;;;;;;;1776597;80;26744;-57
2022/11/16 05:41:46;;;;;;;0.90;0.25;;;;;;;;;;1777779;79;26374;-57
2022/11/16 05:44:14;;;;;;;1.37;0.50;;;;;;;;;;1779171;79;26268;-55
2022/11/16 05:46:42;;;;;;;0.23;0.10;;;;;;;;;;1777835;80;26321;-56
2022/11/16 05:49:10;;;;;;;0.42;0.40;;;;;;;;;;1777665;79;26621;-55
2022/11/16 05:51:39;;;;;;;2.75;0.30;;;;;;;;;;1778306;79;26823;-57
2022/11/16 05:54:06;;;;;;;0.40;0.40;;;;;;;;;;1774835;79;26216;-55
2022/11/16 05:56:34;;;;;;;0.40;0.13;;;;;;;;;;1778461;79;26770;-52
2022/11/16 05:59:01;;;;;;;0.35;0.35;;;;;;;;;;1777373;79;26272;-49
2022/11/16 06:01:29;;;;;;;1.12;0.08;;;;;;;;;;1779051;79;26803;-50
2022/11/16 06:03:58;;;;;;;0.45;0.30;;;;;;;;;;1777992;80;26291;-53
2022/11/16 06:06:25;;;;;;;1.55;0.30;;;;;;;;;;1777911;79;26335;-57
2022/11/16 06:08:52;;;;;;;0.57;0.30;;;;;;;;;;1777970;79;26393;-54
2022/11/16 06:11:20;;;;;;;0.30;0.20;;;;;;;;;;1777104;79;26272;-52
2022/11/16 06:13:47;;;;;;;3.02;0.30;;;;;;;;;;1777569;79;26847;-55
2022/11/16 06:16:15;;;;;;;0.57;0.35;;;;;;;;;;1777334;79;26256;-53
2022/11/16 06:18:43;;;;;;;0.40;0.20;;;;;;;;;;1777506;80;26241;-54
2022/11/16 06:21:12;;;;;;;0.90;0.30;;;;;;;;;;1777433;79;26772;-54
2022/11/16 06:23:39;;;;;;;0.20;0.20;;;;;;;;;;1777488;80;26323;-54
2022/11/16 06:26:07;;;;;;;1.20;0.37;;;;;;;;;;1775131;80;26384;-52
2022/11/16 06:28:35;;;;;;;0.28;0.20;;;;;;;;;;1782191;79;26342;-53
2022/11/16 06:31:02;;;;;;;1.45;0.30;;;;;;;;;;1780354;79;26819;-56
2022/11/16 06:33:29;;;;;;;0.40;0.40;;;;;;;;;;1798593;79;27176;-56
2022/11/16 06:35:57;;;;;;;0.20;0.20;;;;;;;;;;1774655;79;26344;-54
2022/11/16 06:38:24;;;;;;;0.20;0.20;;;;;;;;;;1779365;79;26252;-54
2022/11/16 06:40:53;;;;;;;0.30;0.30;;;;;;;;;;1781187;79;26272;-53
2022/11/16 06:43:21;;;;;;;4.10;0.78;;;;;;;;;;1777077;79;26290;-55
2022/11/16 06:45:49;;;;;;;0.37;0.20;;;;;;;;;;1765195;79;26305;-56
2022/11/16 06:48:18;;;;;;;0.60;0.30;;;;;;;;;;1778976;79;26257;-55
2022/11/16 06:50:47;;;;;;;0.75;0.40;;;;;;;;;;1778631;79;26799;-54
2022/11/16 06:53:15;;;;;;;0.37;0.30;;;;;;;;;;1767233;79;26418;-53
2022/11/16 06:55:42;;;;;;;0.55;0.20;;;;;;;;;;1779069;79;26238;-54
2022/11/16 06:58:09;;;;;;;0.20;0.20;;;;;;;;;;1772708;79;26297;-55
2022/11/16 07:00:37;;;;;;;0.40;0.20;;;;;;;;;;1772920;79;26902;-54
2022/11/16 07:03:04;;;;;;;0.20;0.20;;;;;;;;;;1782346;79;26261;-53
2022/11/16 07:05:32;;;;;;;0.30;0.30;;;;;;;;;;1786494;79;26370;-56
2022/11/16 07:07:59;;;;;;;0.13;0.13;;;;;;;;;;1778845;80;26279;-56
2022/11/16 07:10:26;;;;;;;0.15;0.15;;;;;;;;;;1779096;79;26260;-53
2022/11/16 07:12:54;;;;;;;0.65;0.30;;;;;;;;;;1757869;80;26386;-56
2022/11/16 07:15:21;;;;;;;0.17;0.17;;;;;;;;;;1778949;79;26776;-55
2022/11/16 07:17:49;;;;;;;0.47;0.30;;;;;;;;;;1779203;80;26251;-54
2022/11/16 07:20:17;;;;;;;0.23;0.23;;;;;;;;;;1779381;80;26752;-56
2022/11/16 07:22:44;;;;;;;0.42;0.20;;;;;;;;;;1775340;79;26673;-55
2022/11/16 07:25:12;;;;;;;0.20;0.20;;;;;;;;;;1761783;80;26281;-52
2022/11/16 07:27:40;;;;;;;0.37;0.37;;;;;;;;;;1789679;79;26264;-53
2022/11/16 07:30:08;;;;;;;0.85;0.30;;;;;;;;;;1779109;80;26322;-53
2022/11/16 07:32:38;;;;;;;0.00;0.00;;;;;;;;;;1762205;80;26252;-55
2022/11/16 07:35:04;;;;;;;0.30;0.30;;;;;;;;;;1776586;80;26282;-55
2022/11/16 07:37:32;;;;;;;4.67;0.35;;;;;;;;;;1779354;79;26263;-52
2022/11/16 07:39:59;;;;;;;0.45;0.20;;;;;;;;;;1778623;79;26721;-54
2022/11/16 07:42:26;;;;;;;0.10;0.10;;;;;;;;;;1771402;80;26823;-56
2022/11/16 07:44:53;;;;;;;0.20;0.20;;;;;;;;;;1775695;80;26615;-52
2022/11/16 07:47:21;;;;;;;0.88;0.20;;;;;;;;;;1769787;80;26285;-53
2022/11/16 07:49:48;;;;;;;0.17;0.17;;;;;;;;;;1774079;79;26283;-54
2022/11/16 07:52:15;;;;;;;1.20;0.28;;;;;;;;;;1779150;80;26271;-50
2022/11/16 07:54:42;;;;;;;0.20;0.20;;;;;;;;;;1768549;80;26333;-53
2022/11/16 07:57:10;;;;;;;0.28;0.20;;;;;;;;;;1759025;80;26217;-55
2022/11/16 07:59:37;;;;;;;0.75;0.20;;;;;;;;;;1773993;79;26794;-55
2022/11/16 08:02:04;;;;;;;0.40;0.30;;;;;;;;;;1778494;80;26308;-49
2022/11/16 08:04:31;;;;;;;1.17;0.20;;;;;;;;;;1779076;80;26252;-52
2022/11/16 08:06:59;;;;;;;0.10;0.10;;;;;;;;;;1779005;80;26308;-54
2022/11/16 08:09:26;;;;;;;0.68;0.20;;;;;;;;;;1775974;80;26358;-53
2022/11/16 08:11:53;;;;;;;0.20;0.20;;;;;;;;;;1778458;79;26809;-52
2022/11/16 08:14:21;;;;;;;0.15;0.15;;;;;;;;;;1779041;79;26326;-52
2022/11/16 08:16:48;;;;;;;0.55;0.20;;;;;;;;;;1779137;80;26335;-53
2022/11/16 08:19:15;;;;;;;0.23;0.20;;;;;;;;;;1777696;79;26697;-52
2022/11/16 08:21:44;;;;;;;0.20;0.20;;;;;;;;;;1779407;79;26736;-53
2022/11/16 08:24:11;;;;;;;0.20;0.20;;;;;;;;;;1778522;79;26792;-55
2022/11/16 08:26:39;;;;;;;0.10;0.10;;;;;;;;;;1778554;80;27067;-50
2022/11/16 08:29:06;;;;;;;0.20;0.10;;;;;;;;;;1778794;80;26693;-51
2022/11/16 08:31:33;;;;;;;1.07;0.20;;;;;;;;;;1779045;79;26319;-51
2022/11/16 08:34:01;;;;;;;0.25;0.20;;;;;;;;;;1775641;79;26264;-52
2022/11/16 08:36:28;;;;;;;0.05;0.05;;;;;;;;;;1788727;80;26299;-54
2022/11/16 08:38:55;;;;;;;0.30;0.20;;;;;;;;;;1783287;80;26255;-52
2022/11/16 08:41:23;;;;;;;0.28;0.20;;;;;;;;;;1798636;78;26350;-53
2022/11/16 08:43:52;;;;;;;0.30;0.30;;;;;;;;;;1798798;78;27234;-54
2022/11/16 08:46:19;;;;;;;0.20;0.20;;;;;;;;;;1798526;80;26741;-55
2022/11/16 08:48:46;;;;;;;0.37;0.30;;;;;;;;;;1798392;80;26201;-54
2022/11/16 08:51:15;;;;;;;1.22;0.30;;;;;;;;;;1798142;78;26274;-53
2022/11/16 08:53:42;;;;;;;0.10;0.10;;;;;;;;;;1799596;78;26236;-51
2022/11/16 08:56:13;;;;;;;0.20;0.20;;;;;;;;;;1798919;80;26317;-53
2022/11/16 08:58:48;;;;;;;0.15;0.15;;;;;;;;;;1798843;80;26272;-53
2022/11/16 09:01:14;;;;;;;0.30;0.30;;;;;;;;;;1796613;80;26318;-56
2022/11/16 09:03:42;;;;;;;0.20;0.20;;;;;;;;;;1801406;78;26767;-52
2022/11/16 09:06:09;;;;;;;0.35;0.35;;;;;;;;;;1797878;78;26212;-54
2022/11/16 09:08:37;;;;;;;0.30;0.30;;;;;;;;;;1797970;80;26291;-51
2022/11/16 09:11:05;;;;;;;0.30;0.30;;;;;;;;;;1798141;78;26224;-52
2022/11/16 09:13:32;;;;;;;0.20;0.20;;;;;;;;;;1798601;80;26279;-52
2022/11/16 09:16:00;;;;;;;0.20;0.20;;;;;;;;;;1798703;78;26256;-53
2022/11/16 09:18:28;;;;;;;0.20;0.20;;;;;;;;;;1798858;78;26264;-50
2022/11/16 09:20:56;;;;;;;0.20;0.20;;;;;;;;;;1798354;78;26268;-52
2022/11/16 09:23:24;;;;;;;0.20;0.20;;;;;;;;;;1793961;80;26350;-53
2022/11/16 09:25:51;;;;;;;0.20;0.20;;;;;;;;;;1798522;80;26263;-52
2022/11/16 09:28:19;;;;;;;0.33;0.33;;;;;;;;;;1798183;78;26333;-55
2022/11/16 09:30:48;;;;;;;0.70;0.30;;;;;;;;;;1789934;80;26836;-52
2022/11/16 09:33:16;;;;;;;0.20;0.20;;;;;;;;;;1788747;80;26283;-54
2022/11/16 09:35:43;;;;;;;0.20;0.20;;;;;;;;;;1797988;80;26334;-54
2022/11/16 09:38:12;;;;;;;0.20;0.20;;;;;;;;;;1779379;79;26355;-50
2022/11/16 09:40:40;;;;;;;0.30;0.30;;;;;;;;;;1777585;79;26337;-54
2022/11/16 09:43:15;;;;;;;0.20;0.20;;;;;;;;;;1778739;80;26272;-54
2022/11/16 09:45:53;;;;;;;0.23;0.23;;;;;;;;;;1777470;80;26306;-55
2022/11/16 09:48:21;;;;;;;0.20;0.20;;;;;;;;;;1777626;80;26645;-55
2022/11/16 09:51:00;;;;;;;0.35;0.35;;;;;;;;;;1778456;79;26292;-53
2022/11/16 09:53:48;;;;;;;0.20;0.20;;;;;;;;;;1778921;79;26230;-50
2022/11/16 09:56:19;;;;;;;0.30;0.30;;;;;;;;;;1779106;80;26295;-52
2022/11/16 09:59:04;;;;;;;0.20;0.20;;;;;;;;;;1776967;80;26279;-55
2022/11/16 10:01:48;;;;;;;0.20;0.20;;;;;;;;;;1778776;80;26399;-53
2022/11/16 10:04:17;;;;;;;0.25;0.25;;;;;;;;;;1778134;79;26217;-55
2022/11/16 10:06:45;;;;;;;0.23;0.23;;;;;;;;;;1777616;80;26272;-54
2022/11/16 10:09:13;;;;;;;0.30;0.30;;;;;;;;;;1778730;80;26257;-55
2022/11/16 10:11:44;;;;;;;1.30;0.30;;;;;;;;;;1774670;79;26276;-53
2022/11/16 10:14:16;;;;;;;0.20;0.20;;;;;;;;;;1775265;80;26228;-53
2022/11/16 10:17:02;;;;;;;0.30;0.30;;;;;;;;;;1777465;80;26253;-53
2022/11/16 10:19:30;;;;;;;0.20;0.20;;;;;;;;;;1771584;80;26352;-54
2022/11/16 10:21:59;;;;;;;0.20;0.20;;;;;;;;;;1777214;80;26370;-55
2022/11/16 10:24:43;;;;;;;0.47;0.30;;;;;;;;;;1777421;79;26365;-55
2022/11/16 10:27:15;;;;;;;0.30;0.30;;;;;;;;;;1771363;80;26272;-54
2022/11/16 10:29:49;;;;;;;0.20;0.20;;;;;;;;;;1778845;80;27388;-55
2022/11/16 10:32:27;;;;;;;0.20;0.20;;;;;;;;;;1778381;80;26319;-54
2022/11/16 10:34:57;;;;;;;0.20;0.20;;;;;;;;;;1778480;79;26317;-54
2022/11/16 10:37:26;;;;;;;0.30;0.30;;;;;;;;;;1771297;80;26835;-56
2022/11/16 10:39:53;;;;;;;0.20;0.20;;;;;;;;;;1771477;79;26701;-56
2022/11/16 10:42:22;;;;;;;0.20;0.20;;;;;;;;;;1782177;79;26300;-56
2022/11/16 10:44:54;;;;;;;0.20;0.20;;;;;;;;;;1786331;79;26267;-56
2022/11/16 10:47:40;;;;;;;0.20;0.20;;;;;;;;;;1778169;80;26257;-55
2022/11/16 10:50:11;;;;;;;0.30;0.30;;;;;;;;;;1761112;80;26739;-55
2022/11/16 10:52:38;;;;;;;0.10;0.10;;;;;;;;;;1768022;80;26326;-52
2022/11/16 10:55:06;;;;;;;0.20;0.20;;;;;;;;;;1778823;80;26271;-55
2022/11/16 10:57:51;;;;;;;0.20;0.20;;;;;;;;;;1778958;79;26272;-56
2022/11/16 11:00:20;;;;;;;0.20;0.20;;;;;;;;;;1752943;80;26290;-54
2022/11/16 11:02:48;;;;;;;0.30;0.30;;;;;;;;;;1753377;80;26382;-56
2022/11/16 11:05:16;;;;;;;0.17;0.17;;;;;;;;;;1779181;80;26722;-54
2022/11/16 11:07:45;;;;;;;1.22;0.30;;;;;;;;;;1786423;79;26707;-55
2022/11/16 11:10:29;;;;;;;0.30;0.30;;;;;;;;;;1759868;79;26725;-56
2022/11/16 11:13:01;;;;;;;0.20;0.20;;;;;;;;;;1778343;80;26271;-57
2022/11/16 11:15:28;;;;;;;0.20;0.20;;;;;;;;;;1777275;80;26268;-55
2022/11/16 11:18:14;;;;;;;0.33;0.33;;;;;;;;;;1764492;79;27292;-55
2022/11/16 11:20:43;;;;;;;0.25;0.25;;;;;;;;;;1785170;79;26272;-56
2022/11/16 11:23:14;;;;;;;0.20;0.20;;;;;;;;;;1778144;80;26271;-56
2022/11/16 11:25:49;;;;;;;0.20;0.20;;;;;;;;;;1775501;80;26331;-56
2022/11/16 11:28:18;;;;;;;1.65;0.30;;;;;;;;;;1721213;79;26276;-55
2022/11/16 11:31:05;;;;;;;0.20;0.20;;;;;;;;;;1775398;79;26346;-53
2022/11/16 11:33:37;;;;;;;0.20;0.20;;;;;;;;;;1774769;79;26280;-56
2022/11/16 11:36:09;;;;;;;0.20;0.20;;;;;;;;;;1779199;80;26304;-55
2022/11/16 11:38:37;;;;;;;0.30;0.30;;;;;;;;;;1779457;80;26312;-55
2022/11/16 11:41:05;;;;;;;0.40;0.40;;;;;;;;;;1782537;79;26371;-54
2022/11/16 11:43:33;;;;;;;0.30;0.30;;;;;;;;;;1783086;80;25737;-52
2022/11/16 11:46:08;;;;;;;0.20;0.20;;;;;;;;;;1766355;80;26349;-55
2022/11/16 11:48:46;;;;;;;0.72;0.30;;;;;;;;;;1763751;79;26939;-55
2022/11/16 11:51:13;;;;;;;0.20;0.20;;;;;;;;;;1790195;79;26321;-53
2022/11/16 11:53:42;;;;;;;0.47;0.30;;;;;;;;;;1782587;80;26334;-54
2022/11/16 11:56:13;;;;;;;0.30;0.30;;;;;;;;;;1782809;80;26264;-56
2022/11/16 11:58:41;;;;;;;0.30;0.30;;;;;;;;;;1782999;79;26263;-54
2022/11/16 12:01:16;;;;;;;0.30;0.30;;;;;;;;;;1782345;79;26268;-55
2022/11/16 12:03:45;;;;;;;0.40;0.40;;;;;;;;;;1783010;79;26713;-53
2022/11/16 12:06:20;;;;;;;0.45;0.30;;;;;;;;;;1783049;80;26666;-55
2022/11/16 12:08:54;;;;;;;0.50;0.50;;;;;;;;;;1774619;80;26903;-55
2022/11/16 12:11:23;;;;;;;0.35;0.30;;;;;;;;;;1771567;79;26803;-56
2022/11/16 12:13:56;;;;;;;0.42;0.30;;;;;;;;;;1769609;79;26812;-56
2022/11/16 12:16:42;;;;;;;0.30;0.30;;;;;;;;;;1782971;80;26220;-56
2022/11/16 12:19:11;;;;;;;0.72;0.40;;;;;;;;;;1767919;80;26375;-55
2022/11/16 12:21:46;;;;;;;0.40;0.40;;;;;;;;;;1777406;80;26334;-55
2022/11/16 12:24:15;;;;;;;0.55;0.40;;;;;;;;;;1789146;79;26216;-54
2022/11/16 12:26:44;;;;;;;1.05;0.47;;;;;;;;;;1782207;80;26254;-55
2022/11/16 12:29:29;;;;;;;0.30;0.30;;;;;;;;;;1781567;80;26765;-55
2022/11/16 12:32:04;;;;;;;0.33;0.30;;;;;;;;;;1783326;80;27070;-55
2022/11/16 12:34:51;;;;;;;0.62;0.50;;;;;;;;;;1783449;79;26808;-54
2022/11/16 12:37:28;;;;;;;0.40;0.40;;;;;;;;;;1764606;80;26854;-56
2022/11/16 12:40:14;;;;;;;0.40;0.40;;;;;;;;;;1783114;79;26516;-55
2022/11/16 12:42:46;;;;;;;0.50;0.50;;;;;;;;;;1767143;80;26341;-56
2022/11/16 12:45:15;;;;;;;0.72;0.35;;;;;;;;;;1779076;79;26733;-54
2022/11/16 12:47:50;;;;;;;0.72;0.42;;;;;;;;;;1781231;80;26279;-57
2022/11/16 12:50:19;;;;;;;0.40;0.40;;;;;;;;;;1782820;80;27242;-56
2022/11/16 12:52:47;;;;;;;0.50;0.50;;;;;;;;;;1779587;80;26966;-54
2022/11/16 12:55:25;;;;;;;1.55;0.40;;;;;;;;;;1780852;80;26263;-55
2022/11/16 12:57:54;;;;;;;0.40;0.40;;;;;;;;;;1782761;79;26427;-56
2022/11/16 13:00:21;;;;;;;0.40;0.40;;;;;;;;;;1782296;80;26200;-57
2022/11/16 13:02:59;;;;;;;1.12;0.40;;;;;;;;;;1782849;80;26269;-55
2022/11/16 13:05:31;;;;;;;0.50;0.50;;;;;;;;;;1779573;80;27127;-55
2022/11/16 13:08:00;;;;;;;0.65;0.40;;;;;;;;;;1781024;79;26208;-57
2022/11/16 13:10:31;;;;;;;0.40;0.40;;;;;;;;;;1781003;79;26366;-58
2022/11/16 13:13:00;;;;;;;0.50;0.50;;;;;;;;;;1789167;80;26256;-57
2022/11/16 13:15:29;;;;;;;0.40;0.40;;;;;;;;;;1783248;80;26303;-56
2022/11/16 13:17:58;;;;;;;0.62;0.40;;;;;;;;;;1782818;79;26264;-55
2022/11/16 13:20:29;;;;;;;0.40;0.40;;;;;;;;;;1782175;80;26214;-57
2022/11/16 13:23:01;;;;;;;0.47;0.47;;;;;;;;;;1757415;80;26736;-56
2022/11/16 13:25:39;;;;;;;0.40;0.40;;;;;;;;;;1775942;80;26268;-57
2022/11/16 13:28:07;;;;;;;0.37;0.37;;;;;;;;;;1782701;80;26822;-54
2022/11/16 13:30:39;;;;;;;0.37;0.37;;;;;;;;;;1780838;79;26781;-56
2022/11/16 13:33:20;;;;;;;0.42;0.42;;;;;;;;;;1782012;80;26720;-54
2022/11/16 13:35:47;;;;;;;0.85;0.60;;;;;;;;;;1781615;80;26462;-56
2022/11/16 13:38:16;;;;;;;2.37;0.50;;;;;;;;;;1782553;80;26321;-55
2022/11/16 13:40:44;;;;;;;0.53;0.40;;;;;;;;;;1774607;79;26267;-57
2022/11/16 13:43:12;;;;;;;0.40;0.40;;;;;;;;;;1778927;79;26228;-56
2022/11/16 13:45:41;;;;;;;0.33;0.33;;;;;;;;;;1779283;80;26261;-53
2022/11/16 13:48:16;;;;;;;0.40;0.40;;;;;;;;;;1778081;80;26312;-57
2022/11/16 13:50:48;;;;;;;0.55;0.30;;;;;;;;;;1762702;80;26276;-52
2022/11/16 13:53:23;;;;;;;1.57;0.50;;;;;;;;;;1779663;79;26620;-56
2022/11/16 13:55:52;;;;;;;0.42;0.42;;;;;;;;;;1777855;80;26208;-56
2022/11/16 13:58:20;;;;;;;0.40;0.40;;;;;;;;;;1777231;80;26279;-56
2022/11/16 14:01:06;;;;;;;0.40;0.40;;;;;;;;;;1779059;80;26740;-54
2022/11/16 14:03:37;;;;;;;0.30;0.30;;;;;;;;;;1771155;79;26280;-55
2022/11/16 14:06:05;;;;;;;0.40;0.40;;;;;;;;;;1778685;80;26332;-55
2022/11/16 14:08:37;;;;;;;0.42;0.42;;;;;;;;;;1750863;79;26585;-56
2022/11/16 14:11:05;;;;;;;2.08;0.40;;;;;;;;;;1772971;79;26733;-55
2022/11/16 14:13:36;;;;;;;1.17;0.40;;;;;;;;;;1778761;79;26264;-55
2022/11/16 14:16:18;;;;;;;0.30;0.30;;;;;;;;;;1778208;79;26775;-51
2022/11/16 14:18:46;;;;;;;0.40;0.40;;;;;;;;;;1778993;80;26363;-54
2022/11/16 14:21:23;;;;;;;0.33;0.33;;;;;;;;;;1778340;80;26305;-55
2022/11/16 14:23:54;;;;;;;0.47;0.47;;;;;;;;;;1779069;80;26388;-53
2022/11/16 14:26:23;;;;;;;0.40;0.40;;;;;;;;;;1754951;79;26286;-55
2022/11/16 14:29:08;;;;;;;0.30;0.30;;;;;;;;;;1771773;80;26252;-56
2022/11/16 14:31:49;;;;;;;0.45;0.45;;;;;;;;;;1779183;80;26336;-56
2022/11/16 14:34:21;;;;;;;0.20;0.20;;;;;;;;;;1779133;80;26373;-55
2022/11/16 14:36:49;;;;;;;0.25;0.25;;;;;;;;;;1769455;79;26253;-56
2022/11/16 14:39:33;;;;;;;0.30;0.30;;;;;;;;;;1763915;80;26323;-53
2022/11/16 14:42:01;;;;;;;0.40;0.40;;;;;;;;;;1777076;80;26260;-56
2022/11/16 14:44:30;;;;;;;0.40;0.40;;;;;;;;;;1779173;79;26283;-56
2022/11/16 14:46:57;;;;;;;0.30;0.30;;;;;;;;;;1778831;79;26259;-55
2022/11/16 14:49:26;;;;;;;0.30;0.30;;;;;;;;;;1778760;79;26758;-55
2022/11/16 14:51:55;;;;;;;0.30;0.30;;;;;;;;;;1770880;79;27400;-53
2022/11/16 14:54:40;;;;;;;0.30;0.30;;;;;;;;;;1788217;79;26682;-55
2022/11/16 14:57:09;;;;;;;0.30;0.30;;;;;;;;;;1765419;80;26339;-53
2022/11/16 14:59:36;;;;;;;0.28;0.28;;;;;;;;;;1791323;79;25829;-58
2022/11/16 15:02:20;;;;;;;0.30;0.30;;;;;;;;;;1779090;80;26296;-51
2022/11/16 15:04:48;;;;;;;0.40;0.40;;;;;;;;;;1779086;80;26339;-53
2022/11/16 15:07:15;;;;;;;0.30;0.30;;;;;;;;;;1775163;79;26300;-53
2022/11/16 15:09:44;;;;;;;0.30;0.30;;;;;;;;;;1779020;79;26311;-54
2022/11/16 15:15:06;;;;;;;0.50;0.50;;;;;;;;;;1759652;79;26329;-56
2022/11/16 15:17:37;;;;;;;0.30;0.30;;;;;;;;;;1756581;80;26883;-52
2022/11/16 15:20:18;;;;;;;0.40;0.40;;;;;;;;;;1779158;79;26205;-52
2022/11/16 15:22:47;;;;;;;0.40;0.40;;;;;;;;;;1778814;80;26686;-53
2022/11/16 15:25:25;;;;;;;0.30;0.30;;;;;;;;;;1777605;79;27015;-54
2022/11/16 15:27:53;;;;;;;0.30;0.30;;;;;;;;;;1772479;80;26327;-56
2022/11/16 15:30:22;;;;;;;0.30;0.30;;;;;;;;;;1779031;80;26749;-57
2022/11/16 15:32:50;;;;;;;9.70;1.22;;;;;;;;;;1778905;79;26308;-58
2022/11/16 15:35:19;;;;;;;10.03;0.98;;;;;;;;;;1779081;80;26374;-56
2022/11/16 15:37:46;;;;;;;7.50;0.90;;;;;;;;;;1778863;80;26318;-57
2022/11/16 15:40:14;;;;;;;2.92;0.80;;;;;;;;;;1781443;79;26295;-54
2022/11/16 15:42:42;;;;;;;4.28;1.05;;;;;;;;;;1785881;79;26255;-53
2022/11/16 15:45:11;;;;;;;3.83;0.72;;;;;;;;;;1764771;80;26795;-50
2022/11/16 15:47:39;;;;;;;4.03;0.78;;;;;;;;;;1781981;80;27417;-50